sensor_id;sensor_type;location;lat;lon;timestamp;P1;durP1;ratioP1;P2;durP2;ratioP2
21589;SDS011;10957;50.968;6.828;2023-01-26T00:03:37;2.90;;;2.80;;
21589;SDS011;10957;50.968;6.828;2023-01-26T00:08:39;3.40;;;3.27;;
21589;SDS011;10957;50.968;6.828;2023-01-26T00:13:41;3.00;;;2.90;;
21589;SDS011;10957;50.968;6.828;2023-01-26T00:18:43;3.00;;;2.90;;
21589;SDS011;10957;50.968;6.828;2023-01-26T00:23:45;3.00;;;2.90;;
21589;SDS011;10957;50.968;6.828;2023-01-26T00:28:47;3.23;;;3.13;;
21589;SDS011;10957;50.968;6.828;2023-01-26T00:33:48;3.20;;;3.10;;
21589;SDS011;10957;50.968;6.828;2023-01-26T00:38:50;3.07;;;2.97;;
21589;SDS011;10957;50.968;6.828;2023-01-26T00:43:51;2.93;;;2.83;;
21589;SDS011;10957;50.968;6.828;2023-01-26T00:48:53;2.90;;;2.80;;
21589;SDS011;10957;50.968;6.828;2023-01-26T00:53:55;2.90;;;2.80;;
21589;SDS011;10957;50.968;6.828;2023-01-26T00:58:56;4.50;;;4.30;;
21589;SDS011;10957;50.968;6.828;2023-01-26T01:03:57;3.13;;;3.03;;
21589;SDS011;10957;50.968;6.828;2023-01-26T01:08:58;3.67;;;3.43;;
21589;SDS011;10957;50.968;6.828;2023-01-26T01:13:59;3.50;;;3.30;;
21589;SDS011;10957;50.968;6.828;2023-01-26T01:19:01;3.30;;;3.20;;
21589;SDS011;10957;50.968;6.828;2023-01-26T01:24:02;3.00;;;2.90;;
21589;SDS011;10957;50.968;6.828;2023-01-26T01:29:03;3.50;;;3.40;;
21589;SDS011;10957;50.968;6.828;2023-01-26T01:34:04;3.03;;;2.93;;
21589;SDS011;10957;50.968;6.828;2023-01-26T01:39:05;3.23;;;3.13;;
21589;SDS011;10957;50.968;6.828;2023-01-26T01:44:17;3.47;;;3.37;;
21589;SDS011;10957;50.968;6.828;2023-01-26T01:49:36;3.23;;;3.13;;
21589;SDS011;10957;50.968;6.828;2023-01-26T02:00:18;3.10;;;3.00;;
21589;SDS011;10957;50.968;6.828;2023-01-26T02:05:27;3.40;;;3.30;;
21589;SDS011;10957;50.968;6.828;2023-01-26T02:10:35;4.03;;;3.83;;
21589;SDS011;10957;50.968;6.828;2023-01-26T02:15:38;3.77;;;3.67;;
21589;SDS011;10957;50.968;6.828;2023-01-26T02:20:42;3.90;;;3.70;;
21589;SDS011;10957;50.968;6.828;2023-01-26T02:30:52;3.70;;;3.60;;
21589;SDS011;10957;50.968;6.828;2023-01-26T02:35:55;3.40;;;3.30;;
21589;SDS011;10957;50.968;6.828;2023-01-26T02:41:01;4.70;;;4.37;;
21589;SDS011;10957;50.968;6.828;2023-01-26T02:46:06;3.40;;;3.27;;
21589;SDS011;10957;50.968;6.828;2023-01-26T02:51:11;3.00;;;2.90;;
21589;SDS011;10957;50.968;6.828;2023-01-26T02:56:12;2.70;;;2.60;;
21589;SDS011;10957;50.968;6.828;2023-01-26T03:01:13;2.67;;;2.57;;
21589;SDS011;10957;50.968;6.828;2023-01-26T03:06:20;2.70;;;2.60;;
21589;SDS011;10957;50.968;6.828;2023-01-26T03:11:21;2.70;;;2.60;;
21589;SDS011;10957;50.968;6.828;2023-01-26T03:16:23;2.93;;;2.83;;
21589;SDS011;10957;50.968;6.828;2023-01-26T03:21:24;4.17;;;3.97;;
21589;SDS011;10957;50.968;6.828;2023-01-26T03:26:46;2.80;;;2.70;;
21589;SDS011;10957;50.968;6.828;2023-01-26T03:32:06;2.70;;;2.60;;
21589;SDS011;10957;50.968;6.828;2023-01-26T03:37:08;2.70;;;2.60;;
21589;SDS011;10957;50.968;6.828;2023-01-26T03:42:18;2.87;;;2.77;;
21589;SDS011;10957;50.968;6.828;2023-01-26T03:47:38;4.07;;;3.77;;
21589;SDS011;10957;50.968;6.828;2023-01-26T03:52:58;2.87;;;2.77;;
21589;SDS011;10957;50.968;6.828;2023-01-26T03:58:18;2.50;;;2.40;;
21589;SDS011;10957;50.968;6.828;2023-01-26T04:03:19;2.50;;;2.40;;
21589;SDS011;10957;50.968;6.828;2023-01-26T04:08:39;2.90;;;2.80;;
21589;SDS011;10957;50.968;6.828;2023-01-26T04:13:40;2.70;;;2.60;;
21589;SDS011;10957;50.968;6.828;2023-01-26T04:19:04;2.47;;;2.37;;
21589;SDS011;10957;50.968;6.828;2023-01-26T04:24:24;2.60;;;2.50;;
21589;SDS011;10957;50.968;6.828;2023-01-26T04:29:31;2.90;;;2.80;;
21589;SDS011;10957;50.968;6.828;2023-01-26T04:34:32;2.50;;;2.40;;
21589;SDS011;10957;50.968;6.828;2023-01-26T04:39:35;3.77;;;3.47;;
21589;SDS011;10957;50.968;6.828;2023-01-26T04:44:36;3.23;;;3.13;;
21589;SDS011;10957;50.968;6.828;2023-01-26T04:49:38;2.90;;;2.80;;
21589;SDS011;10957;50.968;6.828;2023-01-26T04:54:40;2.70;;;2.60;;
21589;SDS011;10957;50.968;6.828;2023-01-26T04:59:41;2.80;;;2.70;;
21589;SDS011;10957;50.968;6.828;2023-01-26T05:04:43;3.20;;;3.10;;
21589;SDS011;10957;50.968;6.828;2023-01-26T05:09:45;2.50;;;2.40;;
21589;SDS011;10957;50.968;6.828;2023-01-26T05:15:18;2.53;;;2.43;;
21589;SDS011;10957;50.968;6.828;2023-01-26T05:20:46;3.17;;;3.07;;
21589;SDS011;10957;50.968;6.828;2023-01-26T05:25:52;2.53;;;2.43;;
21589;SDS011;10957;50.968;6.828;2023-01-26T05:30:54;3.30;;;3.20;;
21589;SDS011;10957;50.968;6.828;2023-01-26T05:35:56;2.30;;;2.20;;
21589;SDS011;10957;50.968;6.828;2023-01-26T05:40:59;2.83;;;2.73;;
21589;SDS011;10957;50.968;6.828;2023-01-26T05:46:02;2.73;;;2.63;;
21589;SDS011;10957;50.968;6.828;2023-01-26T05:51:05;2.60;;;2.50;;
21589;SDS011;10957;50.968;6.828;2023-01-26T05:56:08;2.50;;;2.40;;
21589;SDS011;10957;50.968;6.828;2023-01-26T06:01:14;2.80;;;2.70;;
21589;SDS011;10957;50.968;6.828;2023-01-26T06:06:23;3.10;;;3.00;;
21589;SDS011;10957;50.968;6.828;2023-01-26T06:11:32;3.00;;;2.90;;
21589;SDS011;10957;50.968;6.828;2023-01-26T06:16:43;3.23;;;3.13;;
21589;SDS011;10957;50.968;6.828;2023-01-26T06:21:45;3.20;;;3.10;;
21589;SDS011;10957;50.968;6.828;2023-01-26T06:26:46;2.93;;;2.83;;
21589;SDS011;10957;50.968;6.828;2023-01-26T06:31:50;2.80;;;2.70;;
21589;SDS011;10957;50.968;6.828;2023-01-26T06:36:51;3.30;;;3.20;;
21589;SDS011;10957;50.968;6.828;2023-01-26T06:42:00;3.20;;;3.10;;
21589;SDS011;10957;50.968;6.828;2023-01-26T06:47:01;4.83;;;4.30;;
21589;SDS011;10957;50.968;6.828;2023-01-26T06:52:18;3.57;;;3.47;;
21589;SDS011;10957;50.968;6.828;2023-01-26T06:57:24;2.90;;;2.80;;
21589;SDS011;10957;50.968;6.828;2023-01-26T07:02:42;3.10;;;3.00;;
21589;SDS011;10957;50.968;6.828;2023-01-26T07:07:44;2.83;;;2.73;;
21589;SDS011;10957;50.968;6.828;2023-01-26T07:12:45;3.37;;;3.27;;
21589;SDS011;10957;50.968;6.828;2023-01-26T07:17:46;2.67;;;2.57;;
21589;SDS011;10957;50.968;6.828;2023-01-26T07:22:47;2.80;;;2.70;;
21589;SDS011;10957;50.968;6.828;2023-01-26T07:27:53;2.90;;;2.80;;
21589;SDS011;10957;50.968;6.828;2023-01-26T07:32:58;2.80;;;2.70;;
21589;SDS011;10957;50.968;6.828;2023-01-26T07:38:02;2.80;;;2.70;;
21589;SDS011;10957;50.968;6.828;2023-01-26T07:43:04;3.20;;;3.10;;
21589;SDS011;10957;50.968;6.828;2023-01-26T07:48:21;2.90;;;2.80;;
21589;SDS011;10957;50.968;6.828;2023-01-26T07:53:23;2.90;;;2.80;;
21589;SDS011;10957;50.968;6.828;2023-01-26T07:58:27;2.80;;;2.70;;
21589;SDS011;10957;50.968;6.828;2023-01-26T08:03:28;3.30;;;3.20;;
21589;SDS011;10957;50.968;6.828;2023-01-26T08:08:30;2.70;;;2.60;;
21589;SDS011;10957;50.968;6.828;2023-01-26T08:13:31;2.70;;;2.60;;
21589;SDS011;10957;50.968;6.828;2023-01-26T08:18:32;3.33;;;3.17;;
21589;SDS011;10957;50.968;6.828;2023-01-26T08:23:34;3.63;;;3.43;;
21589;SDS011;10957;50.968;6.828;2023-01-26T08:28:35;3.03;;;2.93;;
21589;SDS011;10957;50.968;6.828;2023-01-26T08:33:37;3.40;;;3.30;;
21589;SDS011;10957;50.968;6.828;2023-01-26T08:38:39;2.60;;;2.50;;
21589;SDS011;10957;50.968;6.828;2023-01-26T08:43:41;2.47;;;2.37;;
21589;SDS011;10957;50.968;6.828;2023-01-26T08:48:43;4.00;;;3.80;;
21589;SDS011;10957;50.968;6.828;2023-01-26T08:53:44;2.70;;;2.60;;
21589;SDS011;10957;50.968;6.828;2023-01-26T08:58:45;2.67;;;2.57;;
21589;SDS011;10957;50.968;6.828;2023-01-26T09:03:47;2.97;;;2.87;;
21589;SDS011;10957;50.968;6.828;2023-01-26T09:08:48;3.80;;;3.60;;
21589;SDS011;10957;50.968;6.828;2023-01-26T09:13:50;2.60;;;2.50;;
21589;SDS011;10957;50.968;6.828;2023-01-26T09:18:55;4.07;;;3.87;;
21589;SDS011;10957;50.968;6.828;2023-01-26T09:23:57;3.40;;;3.30;;
21589;SDS011;10957;50.968;6.828;2023-01-26T09:28:58;3.00;;;2.90;;
21589;SDS011;10957;50.968;6.828;2023-01-26T09:33:59;3.50;;;3.40;;
21589;SDS011;10957;50.968;6.828;2023-01-26T09:39:00;2.80;;;2.70;;
21589;SDS011;10957;50.968;6.828;2023-01-26T09:44:08;2.93;;;2.83;;
21589;SDS011;10957;50.968;6.828;2023-01-26T09:49:23;2.90;;;2.80;;
21589;SDS011;10957;50.968;6.828;2023-01-26T09:54:30;2.90;;;2.80;;
21589;SDS011;10957;50.968;6.828;2023-01-26T09:59:39;3.23;;;3.13;;
21589;SDS011;10957;50.968;6.828;2023-01-26T10:05:00;3.07;;;2.97;;
21589;SDS011;10957;50.968;6.828;2023-01-26T10:10:08;2.87;;;2.77;;
21589;SDS011;10957;50.968;6.828;2023-01-26T10:15:27;2.73;;;2.63;;
21589;SDS011;10957;50.968;6.828;2023-01-26T10:20:39;2.80;;;2.70;;
21589;SDS011;10957;50.968;6.828;2023-01-26T10:25:47;2.80;;;2.70;;
21589;SDS011;10957;50.968;6.828;2023-01-26T10:30:50;2.60;;;2.50;;
21589;SDS011;10957;50.968;6.828;2023-01-26T10:35:52;2.97;;;2.87;;
21589;SDS011;10957;50.968;6.828;2023-01-26T10:40:54;2.60;;;2.50;;
21589;SDS011;10957;50.968;6.828;2023-01-26T10:45:55;2.70;;;2.60;;
21589;SDS011;10957;50.968;6.828;2023-01-26T10:51:14;2.67;;;2.57;;
21589;SDS011;10957;50.968;6.828;2023-01-26T10:56:16;3.10;;;3.00;;
21589;SDS011;10957;50.968;6.828;2023-01-26T11:01:17;3.70;;;3.40;;
21589;SDS011;10957;50.968;6.828;2023-01-26T11:06:26;2.50;;;2.40;;
21589;SDS011;10957;50.968;6.828;2023-01-26T11:11:28;2.60;;;2.50;;
21589;SDS011;10957;50.968;6.828;2023-01-26T11:16:29;2.40;;;2.30;;
21589;SDS011;10957;50.968;6.828;2023-01-26T11:21:34;2.77;;;2.67;;
21589;SDS011;10957;50.968;6.828;2023-01-26T11:42:43;3.23;;;3.13;;
21589;SDS011;10957;50.968;6.828;2023-01-26T11:48:07;2.70;;;2.60;;
21589;SDS011;10957;50.968;6.828;2023-01-26T11:58:59;3.63;;;3.47;;
21589;SDS011;10957;50.968;6.828;2023-01-26T12:04:08;2.80;;;2.70;;
21589;SDS011;10957;50.968;6.828;2023-01-26T12:20:10;2.70;;;2.60;;
21589;SDS011;10957;50.968;6.828;2023-01-26T12:25:14;3.50;;;3.33;;
21589;SDS011;10957;50.968;6.828;2023-01-26T12:35:39;2.40;;;2.30;;
21589;SDS011;10957;50.968;6.828;2023-01-26T12:41:49;2.27;;;2.17;;
21589;SDS011;10957;50.968;6.828;2023-01-26T12:46:49;2.43;;;2.33;;
21589;SDS011;10957;50.968;6.828;2023-01-26T12:51:56;2.10;;;2.00;;
21589;SDS011;10957;50.968;6.828;2023-01-26T12:57:10;2.43;;;2.33;;
21589;SDS011;10957;50.968;6.828;2023-01-26T13:07:35;2.30;;;2.20;;
21589;SDS011;10957;50.968;6.828;2023-01-26T13:12:44;2.90;;;2.80;;
21589;SDS011;10957;50.968;6.828;2023-01-26T13:17:53;2.40;;;2.30;;
21589;SDS011;10957;50.968;6.828;2023-01-26T13:22:56;3.20;;;3.07;;
21589;SDS011;10957;50.968;6.828;2023-01-26T13:27:59;2.70;;;2.60;;
21589;SDS011;10957;50.968;6.828;2023-01-26T13:43:34;2.43;;;2.33;;
21589;SDS011;10957;50.968;6.828;2023-01-26T13:48:43;3.33;;;3.20;;
21589;SDS011;10957;50.968;6.828;2023-01-26T13:58:54;2.43;;;2.33;;
21589;SDS011;10957;50.968;6.828;2023-01-26T14:04:04;2.77;;;2.67;;
21589;SDS011;10957;50.968;6.828;2023-01-26T14:09:09;2.50;;;2.40;;
21589;SDS011;10957;50.968;6.828;2023-01-26T14:14:25;2.30;;;2.20;;
21589;SDS011;10957;50.968;6.828;2023-01-26T14:19:28;2.53;;;2.43;;
21589;SDS011;10957;50.968;6.828;2023-01-26T14:24:31;2.63;;;2.53;;
21589;SDS011;10957;50.968;6.828;2023-01-26T14:29:36;2.30;;;2.20;;
21589;SDS011;10957;50.968;6.828;2023-01-26T14:34:38;2.67;;;2.57;;
21589;SDS011;10957;50.968;6.828;2023-01-26T14:45:30;2.40;;;2.30;;
21589;SDS011;10957;50.968;6.828;2023-01-26T14:50:32;2.50;;;2.40;;
21589;SDS011;10957;50.968;6.828;2023-01-26T14:55:35;2.50;;;2.40;;
21589;SDS011;10957;50.968;6.828;2023-01-26T15:00:36;3.10;;;2.93;;
21589;SDS011;10957;50.968;6.828;2023-01-26T15:05:38;2.40;;;2.30;;
21589;SDS011;10957;50.968;6.828;2023-01-26T15:10:42;2.33;;;2.23;;
21589;SDS011;10957;50.968;6.828;2023-01-26T15:16:24;2.40;;;2.30;;
21589;SDS011;10957;50.968;6.828;2023-01-26T15:21:32;2.40;;;2.30;;
21589;SDS011;10957;50.968;6.828;2023-01-26T15:26:39;2.50;;;2.40;;
21589;SDS011;10957;50.968;6.828;2023-01-26T15:31:41;2.40;;;2.30;;
21589;SDS011;10957;50.968;6.828;2023-01-26T15:36:46;2.43;;;2.33;;
21589;SDS011;10957;50.968;6.828;2023-01-26T15:41:57;2.80;;;2.70;;
21589;SDS011;10957;50.968;6.828;2023-01-26T15:47:13;2.57;;;2.47;;
21589;SDS011;10957;50.968;6.828;2023-01-26T15:52:15;4.40;;;3.20;;
21589;SDS011;10957;50.968;6.828;2023-01-26T15:57:17;1.40;;;1.40;;
21589;SDS011;10957;50.968;6.828;2023-01-26T16:02:19;1.40;;;1.40;;
21589;SDS011;10957;50.968;6.828;2023-01-26T16:07:20;1.20;;;1.20;;
21589;SDS011;10957;50.968;6.828;2023-01-26T16:12:22;2.23;;;2.13;;
21589;SDS011;10957;50.968;6.828;2023-01-26T16:17:23;1.10;;;1.10;;
21589;SDS011;10957;50.968;6.828;2023-01-26T16:22:24;1.10;;;1.10;;
21589;SDS011;10957;50.968;6.828;2023-01-26T16:27:25;1.60;;;1.53;;
21589;SDS011;10957;50.968;6.828;2023-01-26T16:32:27;1.30;;;1.30;;
21589;SDS011;10957;50.968;6.828;2023-01-26T16:37:29;1.20;;;1.20;;
21589;SDS011;10957;50.968;6.828;2023-01-26T16:42:30;1.20;;;1.20;;
21589;SDS011;10957;50.968;6.828;2023-01-26T16:47:32;1.10;;;1.10;;
21589;SDS011;10957;50.968;6.828;2023-01-26T16:52:33;2.40;;;2.20;;
21589;SDS011;10957;50.968;6.828;2023-01-26T16:57:35;1.20;;;1.20;;
21589;SDS011;10957;50.968;6.828;2023-01-26T17:02:36;1.63;;;1.63;;
21589;SDS011;10957;50.968;6.828;2023-01-26T17:07:37;1.10;;;1.10;;
21589;SDS011;10957;50.968;6.828;2023-01-26T17:12:39;1.47;;;1.47;;
21589;SDS011;10957;50.968;6.828;2023-01-26T17:17:40;1.10;;;1.10;;
21589;SDS011;10957;50.968;6.828;2023-01-26T17:22:45;1.90;;;1.80;;
21589;SDS011;10957;50.968;6.828;2023-01-26T17:27:47;2.60;;;2.50;;
21589;SDS011;10957;50.968;6.828;2023-01-26T17:32:49;1.13;;;1.13;;
21589;SDS011;10957;50.968;6.828;2023-01-26T17:37:50;1.40;;;1.40;;
21589;SDS011;10957;50.968;6.828;2023-01-26T17:42:51;1.10;;;1.10;;
21589;SDS011;10957;50.968;6.828;2023-01-26T17:47:53;3.27;;;2.83;;
21589;SDS011;10957;50.968;6.828;2023-01-26T17:52:54;2.63;;;2.50;;
21589;SDS011;10957;50.968;6.828;2023-01-26T17:57:55;1.23;;;1.23;;
21589;SDS011;10957;50.968;6.828;2023-01-26T18:02:56;1.20;;;1.20;;
21589;SDS011;10957;50.968;6.828;2023-01-26T18:07:58;1.30;;;1.30;;
21589;SDS011;10957;50.968;6.828;2023-01-26T18:12:59;1.57;;;1.50;;
21589;SDS011;10957;50.968;6.828;2023-01-26T18:18:00;1.27;;;1.27;;
21589;SDS011;10957;50.968;6.828;2023-01-26T18:23:02;2.33;;;2.23;;
21589;SDS011;10957;50.968;6.828;2023-01-26T18:28:04;1.30;;;1.30;;
21589;SDS011;10957;50.968;6.828;2023-01-26T18:33:05;1.30;;;1.30;;
21589;SDS011;10957;50.968;6.828;2023-01-26T18:38:07;1.63;;;1.63;;
21589;SDS011;10957;50.968;6.828;2023-01-26T18:43:08;1.20;;;1.20;;
21589;SDS011;10957;50.968;6.828;2023-01-26T18:48:10;1.20;;;1.20;;
21589;SDS011;10957;50.968;6.828;2023-01-26T18:53:11;1.40;;;1.40;;
21589;SDS011;10957;50.968;6.828;2023-01-26T18:58:12;1.37;;;1.37;;
21589;SDS011;10957;50.968;6.828;2023-01-26T19:03:13;1.73;;;1.63;;
21589;SDS011;10957;50.968;6.828;2023-01-26T19:08:17;1.87;;;1.77;;
21589;SDS011;10957;50.968;6.828;2023-01-26T19:13:22;1.07;;;1.07;;
21589;SDS011;10957;50.968;6.828;2023-01-26T19:18:23;1.30;;;1.30;;
21589;SDS011;10957;50.968;6.828;2023-01-26T19:23:24;1.37;;;1.37;;
21589;SDS011;10957;50.968;6.828;2023-01-26T19:28:26;1.73;;;1.63;;
21589;SDS011;10957;50.968;6.828;2023-01-26T19:33:27;1.80;;;1.70;;
21589;SDS011;10957;50.968;6.828;2023-01-26T19:38:29;1.30;;;1.30;;
21589;SDS011;10957;50.968;6.828;2023-01-26T19:43:32;1.47;;;1.47;;
21589;SDS011;10957;50.968;6.828;2023-01-26T19:48:33;1.43;;;1.43;;
21589;SDS011;10957;50.968;6.828;2023-01-26T19:53:36;1.20;;;1.20;;
21589;SDS011;10957;50.968;6.828;2023-01-26T19:58:38;1.30;;;1.30;;
21589;SDS011;10957;50.968;6.828;2023-01-26T20:03:40;1.40;;;1.33;;
21589;SDS011;10957;50.968;6.828;2023-01-26T20:08:41;1.20;;;1.20;;
21589;SDS011;10957;50.968;6.828;2023-01-26T20:13:42;1.40;;;1.40;;
21589;SDS011;10957;50.968;6.828;2023-01-26T20:18:44;2.93;;;1.97;;
21589;SDS011;10957;50.968;6.828;2023-01-26T20:23:45;1.43;;;1.43;;
21589;SDS011;10957;50.968;6.828;2023-01-26T20:28:46;1.40;;;1.40;;
21589;SDS011;10957;50.968;6.828;2023-01-26T20:33:48;1.27;;;1.27;;
21589;SDS011;10957;50.968;6.828;2023-01-26T20:38:50;1.20;;;1.20;;
21589;SDS011;10957;50.968;6.828;2023-01-26T20:43:55;1.17;;;1.17;;
21589;SDS011;10957;50.968;6.828;2023-01-26T20:48:57;1.43;;;1.40;;
21589;SDS011;10957;50.968;6.828;2023-01-26T20:53:59;1.43;;;1.43;;
21589;SDS011;10957;50.968;6.828;2023-01-26T20:59:01;2.40;;;2.30;;
21589;SDS011;10957;50.968;6.828;2023-01-26T21:04:04;1.10;;;1.10;;
21589;SDS011;10957;50.968;6.828;2023-01-26T21:09:06;2.53;;;1.83;;
21589;SDS011;10957;50.968;6.828;2023-01-26T21:14:09;1.47;;;1.43;;
21589;SDS011;10957;50.968;6.828;2023-01-26T21:19:11;2.80;;;1.73;;
21589;SDS011;10957;50.968;6.828;2023-01-26T21:24:12;1.33;;;1.33;;
21589;SDS011;10957;50.968;6.828;2023-01-26T21:29:14;2.07;;;1.97;;
21589;SDS011;10957;50.968;6.828;2023-01-26T21:34:16;1.30;;;1.30;;
21589;SDS011;10957;50.968;6.828;2023-01-26T21:39:17;1.20;;;1.20;;
21589;SDS011;10957;50.968;6.828;2023-01-26T21:44:26;2.07;;;1.90;;
21589;SDS011;10957;50.968;6.828;2023-01-26T21:49:31;1.80;;;1.70;;
21589;SDS011;10957;50.968;6.828;2023-01-26T21:54:33;1.57;;;1.47;;
21589;SDS011;10957;50.968;6.828;2023-01-26T21:59:34;1.60;;;1.60;;
21589;SDS011;10957;50.968;6.828;2023-01-26T22:04:35;1.40;;;1.40;;
21589;SDS011;10957;50.968;6.828;2023-01-26T22:09:38;1.20;;;1.20;;
21589;SDS011;10957;50.968;6.828;2023-01-26T22:14:40;4.27;;;3.97;;
21589;SDS011;10957;50.968;6.828;2023-01-26T22:19:41;3.10;;;3.00;;
21589;SDS011;10957;50.968;6.828;2023-01-26T22:24:43;3.00;;;2.90;;
21589;SDS011;10957;50.968;6.828;2023-01-26T22:29:45;2.73;;;2.63;;
21589;SDS011;10957;50.968;6.828;2023-01-26T22:34:46;4.03;;;3.77;;
21589;SDS011;10957;50.968;6.828;2023-01-26T22:39:49;4.03;;;3.30;;
21589;SDS011;10957;50.968;6.828;2023-01-26T22:44:51;3.07;;;2.97;;
21589;SDS011;10957;50.968;6.828;2023-01-26T22:49:52;3.03;;;2.93;;
21589;SDS011;10957;50.968;6.828;2023-01-26T22:54:54;3.13;;;3.03;;
21589;SDS011;10957;50.968;6.828;2023-01-26T22:59:55;3.30;;;3.20;;
21589;SDS011;10957;50.968;6.828;2023-01-26T23:04:57;4.33;;;4.03;;
21589;SDS011;10957;50.968;6.828;2023-01-26T23:09:58;3.03;;;2.93;;
21589;SDS011;10957;50.968;6.828;2023-01-26T23:15:00;3.00;;;2.90;;
21589;SDS011;10957;50.968;6.828;2023-01-26T23:20:02;3.03;;;2.93;;
21589;SDS011;10957;50.968;6.828;2023-01-26T23:25:03;3.20;;;3.10;;
21589;SDS011;10957;50.968;6.828;2023-01-26T23:30:24;3.47;;;3.37;;
21589;SDS011;10957;50.968;6.828;2023-01-26T23:35:25;2.97;;;2.87;;
21589;SDS011;10957;50.968;6.828;2023-01-26T23:40:27;2.80;;;2.70;;
21589;SDS011;10957;50.968;6.828;2023-01-26T23:45:28;2.47;;;2.37;;
21589;SDS011;10957;50.968;6.828;2023-01-26T23:50:29;2.90;;;2.80;;
21589;SDS011;10957;50.968;6.828;2023-01-26T23:55:31;2.50;;;2.40;;
